FSIA Airport Information

Runway Information
Runway 13 Length 9800 ft width 151 ft Elevation 10 ft Threshold 1000 ft Heading 125
Runway 31 Length 9800 ft Width 151 ft Elevation 10 ft Threshold 1000 ft Heading 305
Airport Frequencies
Type APP Name APP Frequency 119.7 MHZ
Type TWR Name TWR Frequency 118.3 MHZ
Airport Navaids
Type VOR-DME Name Seychelles Frequency 113100 KHZ
Type NDB Name Seychelles Frequency 373 KHZ
Airport Weather Information & NOTAM
ADDS - METARS form results

(0640 UTC 09 December 2022)
Data provider http://aviationweather.gov/metar/data/
 
METAR text: FSIA 090600Z VRB03KT 9999 FEW021 29/23 Q1011 NOSIG
Conditions at: FSIA (SEYCHELLES INTL , SC) observed 0600 UTC 09 December 2022
Temperature: 29.0°C (84°F)
Dewpoint: 23.0°C (73°F) [RH = 70%]
Pressure (altimeter): 29.85 inches Hg (1011.0 mb)
Winds: variable direction winds at 3 MPH (3 knots; 1.5 m/s)
Visibility: 6 or more miles (10+ km)
Ceiling: at least 12,000 feet AGL
Clouds: few clouds at 2100 feet AGL
Weather: no significant weather observed at this time

Forecast for: FSIA (SEYCHELLES INTL , SC)
Text: TAF FSIA 090501Z 0906/1006 VRB03KT 9999 FEW022
Forecast period: 0600 UTC 09 December 2022 to 0600 UTC 10 December 2022
Forecast type: FROM: standard forecast or significant change
Winds: variable direction winds at 3 MPH (3 knots; 1.5 m/s)
Visibility: 6 or more miles (10+ km)
Ceiling: at least 12,000 feet AGL
Clouds: few clouds at 2200 feet AGL
Weather: no significant weather forecast for this period